»·PEaware :: SKW5618 KLAX-KLAS

SKW5618 :: KLAX-KLAS

FLIGHT INFORMATION

Flight Status: Arrived
Operator:
SkyWest Airlines
More flights by this operator :: More flights under this callsign
Pilot: Alec D. (17934)
Aircraft: EMBRAER EMB-170/175
(E170)
More flights by this aircraft type
Origin: KLAX Los Angeles Intl
United States
Destination: KLAS McCarran Intl
United States
More flights between these airports :: More routes between these airports
Route: ORCKA3 MISEN KEPEC6
File this flight plan on PilotEdge
Remarks:
Altitude:
(Current/Filed)
29,000ft
Speed:
(Current/Filed)
420kts
Departed: 25-Aug-18 10:55 AM
Arrived: 25-Aug-18 11:47 AM
Distance/Time
Traveled:
206nm/0:52
Distance/Time
To Go:
Arrived

Flight Plot

Page will automatically refresh every two minutes.

Flight plan parsing failed; only flown route is shown


Map Options




Map Legend


Flown Route
Filed Route
Departure Airport
Arrival Airport
Navaid (VOR, NDB)
Fix

Horizontal Profiles

Position Reports

Time Latitude Longitude Heading Altitude Ground
Speed
25-Aug-18 10:35 33.940944 -118.405109 85 137ft 0kts
25-Aug-18 10:36 33.940944 -118.405109 85 137ft 0kts
25-Aug-18 10:37 33.940944 -118.405109 85 137ft 0kts
25-Aug-18 10:38 33.940944 -118.405109 85 137ft 0kts
25-Aug-18 10:39 33.940944 -118.405109 85 137ft 0kts
25-Aug-18 10:40 33.940944 -118.405109 85 137ft 0kts
25-Aug-18 10:41 33.940944 -118.405109 85 137ft 0kts
25-Aug-18 10:42 33.940944 -118.405109 85 137ft 0kts
25-Aug-18 10:43 33.940944 -118.405109 85 137ft 0kts
25-Aug-18 10:44 33.940944 -118.405109 85 137ft 0kts
25-Aug-18 10:45 33.940944 -118.405109 85 137ft 0kts
25-Aug-18 10:46 33.940944 -118.405109 85 137ft 0kts
25-Aug-18 10:47 33.940944 -118.405109 85 137ft 0kts
25-Aug-18 10:48 33.940944 -118.405109 85 137ft 0kts
25-Aug-18 10:49 33.941100 -118.405757 144 137ft 0kts
25-Aug-18 10:50 33.941097 -118.405754 144 137ft 0kts
25-Aug-18 10:51 33.939750 -118.405508 167 137ft 11kts
25-Aug-18 10:52 33.938635 -118.401791 83 137ft 14kts
25-Aug-18 10:53 33.939321 -118.395553 81 137ft 18kts
25-Aug-18 10:54 33.939945 -118.388916 83 137ft 20kts
25-Aug-18 10:55 33.940628 -118.382215 82 137ft 16kts
25-Aug-18 10:56 33.939277 -118.386448 262 137ft 96kts
25-Aug-18 10:57 33.932683 -118.446200 262 1966ft 219kts
25-Aug-18 10:58 33.916832 -118.527072 249 4465ft 266kts
25-Aug-18 10:59 33.873578 -118.594701 186 8341ft 275kts
25-Aug-18 11:00 33.831071 -118.530137 75 11369ft 321kts
25-Aug-18 11:01 33.900537 -118.454725 28 13958ft 364kts
25-Aug-18 11:02 33.971393 -118.369263 61 16868ft 375kts
25-Aug-18 11:03 34.029994 -118.261306 55 19228ft 395kts
25-Aug-18 11:04 34.093580 -118.149377 56 21421ft 411kts
25-Aug-18 11:05 34.158964 -118.033508 56 23436ft 425kts
25-Aug-18 11:06 34.226641 -117.913301 56 25204ft 439kts
25-Aug-18 11:07 34.296058 -117.789512 56 26902ft 449kts
25-Aug-18 11:08 34.366297 -117.665044 55 28776ft 449kts
25-Aug-18 11:09 34.439644 -117.542304 55 29075ft 445kts
25-Aug-18 11:10 34.512065 -117.421013 55 29084ft 444kts
25-Aug-18 11:11 34.584083 -117.299718 55 29087ft 444kts
25-Aug-18 11:12 34.650479 -117.187430 55 29095ft 443kts
25-Aug-18 11:13 34.716139 -117.076007 55 29097ft 444kts
25-Aug-18 11:14 34.788164 -116.953353 55 29073ft 446kts
25-Aug-18 11:15 34.860087 -116.830462 55 29072ft 446kts
25-Aug-18 11:16 34.931660 -116.707405 56 29069ft 445kts
25-Aug-18 11:17 35.003290 -116.580412 56 27414ft 458kts
25-Aug-18 11:18 35.072529 -116.457146 56 25067ft 428kts
25-Aug-18 11:19 35.147231 -116.348023 46 23653ft 411kts
25-Aug-18 11:20 35.225039 -116.250572 46 21582ft 391kts
25-Aug-18 11:21 35.299252 -116.157168 46 19568ft 376kts
25-Aug-18 11:22 35.371107 -116.066603 46 17564ft 364kts
25-Aug-18 11:23 35.440478 -115.978942 46 15566ft 352kts
25-Aug-18 11:24 35.507475 -115.894084 46 13564ft 337kts
25-Aug-18 11:25 35.570100 -115.814582 46 13071ft 318kts
25-Aug-18 11:26 35.631295 -115.736685 46 13042ft 317kts
25-Aug-18 11:27 35.692607 -115.658451 46 13040ft 317kts
25-Aug-18 11:28 35.755311 -115.582976 30 13036ft 316kts
25-Aug-18 11:29 35.841790 -115.567780 1 13041ft 317kts
25-Aug-18 11:30 35.930396 -115.564046 3 13038ft 313kts
25-Aug-18 11:31 35.994033 -115.505603 65 12544ft 291kts
25-Aug-18 11:32 36.022875 -115.413583 71 11545ft 285kts
25-Aug-18 11:33 36.028576 -115.319811 98 10650ft 268kts
25-Aug-18 11:34 36.021529 -115.231717 98 9484ft 251kts
25-Aug-18 11:35 36.015186 -115.145926 98 8512ft 248kts
25-Aug-18 11:36 36.009376 -115.061569 97 8064ft 246kts
25-Aug-18 11:37 36.004237 -114.977232 97 8020ft 246kts
25-Aug-18 11:38 35.998482 -114.894539 98 7565ft 230kts
25-Aug-18 11:39 35.992762 -114.821044 98 6021ft 203kts
25-Aug-18 11:40 36.030668 -114.785858 4 4652ft 192kts
25-Aug-18 11:41 36.076854 -114.799413 281 4465ft 178kts
25-Aug-18 11:42 36.074915 -114.859754 262 4418ft 175kts
25-Aug-18 11:43 36.073734 -114.925187 265 4412ft 194kts
25-Aug-18 11:44 36.073768 -114.988860 266 4338ft 178kts
25-Aug-18 11:45 36.073766 -115.043985 265 3439ft 146kts
25-Aug-18 11:46 36.073681 -115.093606 264 2683ft 141kts
25-Aug-18 11:47 36.073611 -115.138948 270 2192ft 79kts
25-Aug-18 11:48 36.075372 -115.146422 355 2192ft 5kts
25-Aug-18 11:49 36.077199 -115.146524 354 2192ft 1kts
25-Aug-18 11:50 36.078379 -115.145362 95 2192ft 21kts
25-Aug-18 11:51 36.079741 -115.139089 321 2192ft 13kts
25-Aug-18 11:52 36.080015 -115.139369 319 2192ft 0kts

Navigation Log

Ident Type
Flight plan parsing failed, navigation log unavailable